Time;durP1;ratioP1;P1;durP2;ratioP2;P2;SDS_P1;SDS_P2;PMS_P1;PMS_P2;Temp;Humidity;BMP_temperature;BMP_pressure;BME280_temperature;BME280_humidity;BME280_pressure;Samples;Min_cycle;Max_cycle;Signal;HPM_P1;HPM_P2
2022/11/04 00:01:55;;;;;;;0.00;0.00;;;12.30;99.90;;;;;;5026557;28;20128;-85
2022/11/04 00:04:24;;;;;;;0.00;0.00;;;12.20;99.90;;;;;;5010724;28;20045;-87
2022/11/04 00:06:52;;;;;;;0.00;0.00;;;;;;;;;;5011660;28;20305;-86
2022/11/04 00:09:20;;;;;;;0.00;0.00;;;12.20;99.90;;;;;;5014225;28;20052;-86
2022/11/04 00:14:34;;;;;;;0.00;0.00;;;12.20;99.90;;;;;;5011739;28;20411;-86
2022/11/04 00:17:18;;;;;;;0.10;0.10;;;12.20;99.90;;;;;;5009845;28;20046;-85
2022/11/04 00:30:55;;;;;;;0.00;0.00;;;12.20;99.90;;;;;;5008873;28;20127;-85
2022/11/04 00:33:26;;;;;;;0.00;0.00;;;12.20;99.90;;;;;;5010646;28;20371;-87
2022/11/04 00:35:55;;;;;;;0.00;0.00;;;12.30;99.90;;;;;;5013867;28;20196;-86
2022/11/04 00:38:23;;;;;;;0.00;0.00;;;12.20;99.90;;;;;;5012388;28;20081;-86
2022/11/04 00:40:50;;;;;;;0.00;0.00;;;;;;;;;;5010651;28;20050;-87
2022/11/04 00:43:18;;;;;;;0.03;0.03;;;;;;;;;;5014641;28;20121;-86
2022/11/04 00:45:45;;;;;;;0.00;0.00;;;;;;;;;;5012689;28;20056;-86
2022/11/04 00:48:12;;;;;;;0.00;0.00;;;;;;;;;;5009389;28;20119;-85
2022/11/04 00:50:41;;;;;;;0.00;0.00;;;12.30;99.90;;;;;;5007294;28;20046;-86
2022/11/04 00:53:08;;;;;;;0.10;0.10;;;;;;;;;;5011638;28;20050;-86
2022/11/04 00:55:36;;;;;;;0.00;0.00;;;;;;;;;;5003261;28;20425;-85
2022/11/04 00:58:03;;;;;;;0.00;0.00;;;;;;;;;;5011650;28;20053;-85
2022/11/04 01:00:30;;;;;;;0.00;0.00;;;;;;;;;;5002776;28;20052;-86
2022/11/04 01:02:59;;;;;;;0.00;0.00;;;;;;;;;;5012647;28;20046;-85
2022/11/04 01:05:26;;;;;;;0.00;0.00;;;;;;;;;;5009715;28;20042;-87
2022/11/04 01:07:55;;;;;;;0.00;0.00;;;12.20;99.90;;;;;;5045243;22;20060;-82
2022/11/04 01:10:22;;;;;;;0.00;0.00;;;12.20;99.90;;;;;;5041118;28;20049;-82
2022/11/04 01:12:51;;;;;;;0.00;0.00;;;13.70;99.90;;;;;;5040180;28;20048;-82
2022/11/04 01:15:18;;;;;;;0.00;0.00;;;;;;;;;;5035337;28;20065;-81
2022/11/04 01:17:45;;;;;;;0.00;0.00;;;12.20;99.90;;;;;;5024397;28;20099;-83
2022/11/04 01:20:12;;;;;;;0.00;0.00;;;12.10;99.90;;;;;;5031654;28;20068;-82
2022/11/04 01:22:40;;;;;;;0.00;0.00;;;;;;;;;;5021225;28;20033;-83
2022/11/04 01:25:09;;;;;;;0.00;0.00;;;12.10;99.90;;;;;;5030442;28;20049;-81
2022/11/04 01:27:36;;;;;;;0.00;0.00;;;;;;;;;;5048597;28;20037;-81
2022/11/04 01:30:03;;;;;;;0.00;0.00;;;;;;;;;;5046882;28;20041;-82
2022/11/04 01:32:31;;;;;;;0.00;0.00;;;;;;;;;;5033444;28;20076;-84
2022/11/04 01:34:58;;;;;;;0.00;0.00;;;;;;;;;;5036319;28;20072;-83
2022/11/04 01:37:25;;;;;;;0.00;0.00;;;;;;;;;;5030556;28;20042;-81
2022/11/04 01:39:52;;;;;;;0.00;0.00;;;;;;;;;;5042382;28;20056;-83
2022/11/04 01:42:21;;;;;;;0.00;0.00;;;12.00;99.90;;;;;;5037210;28;20072;-83
2022/11/04 01:44:51;;;;;;;0.00;0.00;;;12.00;99.90;;;;;;5031997;28;20065;-84
2022/11/04 01:47:19;;;;;;;;;;;12.40;99.90;;;;;;5029433;28;20050;-82
2022/11/04 01:49:50;;;;;;;0.10;0.10;;;12.00;99.90;;;;;;5034275;28;19921;-83
2022/11/04 01:52:21;;;;;;;0.00;0.00;;;12.80;99.90;;;;;;5032256;28;20029;-82
2022/11/04 01:54:50;;;;;;;0.00;0.00;;;12.50;99.90;;;;;;5032891;28;20061;-84
2022/11/04 01:57:22;;;;;;;0.05;0.05;;;11.90;99.90;;;;;;5033950;28;20029;-82
2022/11/04 01:59:51;;;;;;;0.00;0.00;;;12.50;99.90;;;;;;5035428;28;20064;-81
2022/11/04 02:02:18;;;;;;;0.00;0.00;;;12.90;99.90;;;;;;5031782;28;20038;-81
2022/11/04 02:04:45;;;;;;;0.00;0.00;;;11.80;99.90;;;;;;5030811;28;20046;-84
2022/11/04 02:07:12;;;;;;;0.03;0.03;;;13.90;99.90;;;;;;5044246;28;20069;-81
2022/11/04 02:09:40;;;;;;;0.00;0.00;;;12.50;99.90;;;;;;5032774;28;20046;-81
2022/11/04 02:14:56;;;;;;;0.00;0.00;;;12.30;99.90;;;;;;5048525;28;20060;-81
2022/11/04 02:17:35;;;;;;;0.00;0.00;;;12.20;99.90;;;;;;5039655;28;20060;-81
2022/11/04 02:20:22;;;;;;;0.00;0.00;;;12.00;99.90;;;;;;5034450;28;20046;-83
2022/11/04 02:23:23;;;;;;;0.10;0.10;;;11.80;99.90;;;;;;5031597;28;20028;-79
2022/11/04 02:26:24;;;;;;;0.00;0.00;;;11.70;99.90;;;;;;5031851;28;20057;-81
2022/11/04 02:29:19;;;;;;;0.00;0.00;;;11.70;99.90;;;;;;5050331;28;20059;-83
2022/11/04 02:31:55;;;;;;;0.00;0.00;;;11.60;99.90;;;;;;5033278;28;20049;-81
2022/11/04 02:34:31;;;;;;;0.00;0.00;;;11.90;99.90;;;;;;5048599;28;20037;-81
2022/11/04 02:37:05;;;;;;;0.00;0.00;;;11.50;99.90;;;;;;5051821;28;20068;-82
2022/11/04 02:39:37;;;;;;;0.00;0.00;;;11.90;99.90;;;;;;5046898;28;20072;-84
2022/11/04 02:42:11;;;;;;;0.00;0.00;;;11.50;99.90;;;;;;5033591;28;20073;-85
2022/11/04 02:44:45;;;;;;;0.00;0.00;;;12.50;99.90;;;;;;5049760;28;20049;-81
2022/11/04 02:47:14;;;;;;;0.00;0.00;;;11.50;99.90;;;;;;5044761;28;20041;-83
2022/11/04 02:49:49;;;;;;;0.00;0.00;;;11.50;99.90;;;;;;5041451;28;20053;-84
2022/11/04 02:52:21;;;;;;;0.00;0.00;;;11.50;99.90;;;;;;5034089;28;20041;-83
2022/11/04 02:54:53;;;;;;;0.00;0.00;;;11.50;99.90;;;;;;5042632;28;20057;-80
2022/11/04 02:57:24;;;;;;;0.00;0.00;;;12.50;99.90;;;;;;5048373;28;20072;-82
2022/11/04 02:59:55;;;;;;;0.00;0.00;;;11.50;99.90;;;;;;5050633;28;20061;-82
2022/11/04 03:02:26;;;;;;;0.10;0.10;;;11.90;99.90;;;;;;5049905;28;20045;-81
2022/11/04 03:04:56;;;;;;;0.10;0.10;;;12.00;99.90;;;;;;5035270;28;20072;-83
2022/11/04 03:07:27;;;;;;;0.00;0.00;;;11.40;99.90;;;;;;5027471;28;20089;-80
2022/11/04 03:09:59;;;;;;;0.00;0.00;;;10.10;99.90;;;;;;5036036;28;20034;-82
2022/11/04 03:12:31;;;;;;;0.00;0.00;;;11.40;99.90;;;;;;5050571;28;20041;-80
2022/11/04 03:15:03;;;;;;;0.00;0.00;;;11.30;99.90;;;;;;5052283;28;20041;-82
2022/11/04 03:17:35;;;;;;;0.10;0.10;;;11.30;99.90;;;;;;5041327;28;20044;-82
2022/11/04 03:20:08;;;;;;;0.00;0.00;;;12.30;99.90;;;;;;5031996;28;20068;-81
2022/11/04 03:22:36;;;;;;;0.05;0.05;;;11.10;99.90;;;;;;5035388;28;20041;-83
2022/11/04 03:25:06;;;;;;;0.10;0.10;;;11.20;99.90;;;;;;5030466;28;20045;-84
2022/11/04 03:27:43;;;;;;;0.00;0.00;;;11.20;99.90;;;;;;5040566;28;20056;-81
2022/11/04 03:30:15;;;;;;;0.00;0.00;;;11.20;99.90;;;;;;5047988;28;20149;-85
2022/11/04 03:32:46;;;;;;;0.00;0.00;;;11.20;99.90;;;;;;5041390;28;20026;-82
2022/11/04 03:35:15;;;;;;;0.10;0.10;;;11.30;99.90;;;;;;5032309;28;20064;-78
2022/11/04 03:37:42;;;;;;;0.10;0.10;;;11.30;99.90;;;;;;5040294;28;20065;-82
2022/11/04 03:40:11;;;;;;;0.10;0.10;;;11.30;99.90;;;;;;5030052;28;20045;-81
2022/11/04 03:42:42;;;;;;;0.10;0.10;;;11.20;99.90;;;;;;5051498;28;20036;-81
2022/11/04 03:45:12;;;;;;;0.00;0.00;;;11.20;99.90;;;;;;5039192;28;20067;-82
2022/11/04 03:47:39;;;;;;;0.00;0.00;;;;;;;;;;5036220;28;20049;-80
2022/11/04 03:50:12;;;;;;;0.00;0.00;;;11.60;99.90;;;;;;5037725;28;20060;-80
2022/11/04 03:52:39;;;;;;;0.00;0.00;;;11.10;99.90;;;;;;5036348;28;20029;-84
2022/11/04 03:55:09;;;;;;;0.05;0.05;;;11.20;99.90;;;;;;5036197;28;20065;-81
2022/11/04 03:57:44;;;;;;;0.10;0.10;;;11.20;99.90;;;;;;5053011;28;20037;-82
2022/11/04 04:00:15;;;;;;;0.10;0.10;;;11.20;99.90;;;;;;5035413;28;20080;-81
2022/11/04 04:03:05;;;;;;;0.00;0.00;;;11.10;99.90;;;;;;5052908;28;20077;-83
2022/11/04 04:05:40;;;;;;;0.00;0.00;;;11.20;99.90;;;;;;5030075;28;20038;-81
2022/11/04 04:08:17;;;;;;;0.10;0.10;;;12.20;99.90;;;;;;5032923;28;20053;-83
2022/11/04 04:10:57;;;;;;;0.00;0.00;;;11.20;99.90;;;;;;5037510;28;20045;-82
2022/11/04 04:13:35;;;;;;;0.10;0.10;;;11.30;99.90;;;;;;5052427;28;20081;-82
2022/11/04 04:16:08;;;;;;;0.08;0.08;;;11.30;99.90;;;;;;5036316;28;20049;-81
2022/11/04 04:18:41;;;;;;;0.10;0.10;;;11.30;99.90;;;;;;5032420;28;20055;-82
2022/11/04 04:21:12;;;;;;;0.00;0.00;;;12.10;99.90;;;;;;5047730;28;20068;-86
2022/11/04 04:29:15;;;;;;;0.10;0.10;;;;;;;;;;5046890;28;20056;-80
2022/11/04 04:31:48;;;;;;;0.10;0.10;;;11.20;99.90;;;;;;5032012;28;20056;-83
2022/11/04 04:34:16;;;;;;;0.00;0.00;;;12.80;99.90;;;;;;5037672;28;20069;-83
2022/11/04 04:36:47;;;;;;;0.00;0.00;;;11.50;99.90;;;;;;5035916;28;20290;-83
2022/11/04 04:45:04;;;;;;;0.00;0.00;;;;;;;;;;5048725;28;20030;-84
2022/11/04 04:47:39;;;;;;;0.00;0.00;;;11.30;99.90;;;;;;5047068;28;20081;-83
2022/11/04 04:50:08;;;;;;;0.00;0.00;;;11.30;99.90;;;;;;5037892;28;20049;-80
2022/11/04 04:52:38;;;;;;;0.00;0.00;;;11.30;99.90;;;;;;5034628;28;20045;-83
2022/11/04 04:55:06;;;;;;;0.00;0.00;;;11.30;99.90;;;;;;5030185;28;20090;-81
2022/11/04 04:57:33;;;;;;;0.08;0.08;;;11.40;99.90;;;;;;5023840;28;20029;-82
2022/11/04 05:00:00;;;;;;;0.00;0.00;;;;;;;;;;5046207;28;20072;-81
2022/11/04 05:02:27;;;;;;;0.00;0.00;;;;;;;;;;5029773;28;20022;-82
2022/11/04 05:04:58;;;;;;;0.00;0.00;;;11.30;99.90;;;;;;5034965;28;20067;-82
2022/11/04 05:07:24;;;;;;;;;;;11.30;99.90;;;;;;5048491;28;20049;-82
2022/11/04 05:09:51;;;;;;;0.10;0.10;;;;;;;;;;5034573;28;19943;-82
2022/11/04 05:12:19;;;;;;;0.00;0.00;;;;;;;;;;5038137;28;20033;-83
2022/11/04 05:14:46;;;;;;;0.10;0.10;;;;;;;;;;5033982;28;20021;-83
2022/11/04 05:17:14;;;;;;;0.00;0.00;;;11.30;99.90;;;;;;5033556;28;20065;-81
2022/11/04 05:19:41;;;;;;;0.00;0.00;;;11.30;99.90;;;;;;5042150;28;20059;-80
2022/11/04 05:22:09;;;;;;;0.00;0.00;;;11.30;99.90;;;;;;5027918;28;20053;-82
2022/11/04 05:24:38;;;;;;;0.00;0.00;;;11.30;99.90;;;;;;5033566;28;20419;-82
2022/11/04 05:27:07;;;;;;;0.10;0.10;;;;;;;;;;5053865;28;20148;-81
2022/11/04 05:29:34;;;;;;;0.00;0.00;;;11.20;99.90;;;;;;5035679;28;20057;-82
2022/11/04 05:32:01;;;;;;;0.00;0.00;;;11.20;99.90;;;;;;5034525;28;20058;-80
2022/11/04 05:34:28;;;;;;;0.00;0.00;;;11.30;99.90;;;;;;5042930;28;20029;-83
2022/11/04 05:36:55;;;;;;;0.00;0.00;;;;;;;;;;5041629;28;20047;-84
2022/11/04 05:39:23;;;;;;;0.00;0.00;;;11.30;99.90;;;;;;5033942;28;20041;-82
2022/11/04 05:41:50;;;;;;;0.00;0.00;;;11.70;99.90;;;;;;5035984;28;20049;-83
2022/11/04 05:44:17;;;;;;;0.10;0.10;;;12.80;99.90;;;;;;5029539;28;20049;-84
2022/11/04 05:46:44;;;;;;;0.00;0.00;;;11.30;99.90;;;;;;5034684;28;20056;-81
2022/11/04 05:49:11;;;;;;;0.10;0.10;;;11.30;99.90;;;;;;5030208;28;20068;-83
2022/11/04 05:51:38;;;;;;;0.00;0.00;;;11.30;99.90;;;;;;5037266;28;20041;-82
2022/11/04 05:54:05;;;;;;;0.00;0.00;;;13.00;99.90;;;;;;5034586;28;20076;-83
2022/11/04 05:56:33;;;;;;;0.00;0.00;;;11.20;99.90;;;;;;5048244;28;20065;-82
2022/11/04 05:59:00;;;;;;;0.00;0.00;;;11.20;99.90;;;;;;5032644;28;20283;-82
2022/11/04 06:01:31;;;;;;;0.00;0.00;;;11.20;99.90;;;;;;5030204;28;20064;-83
2022/11/04 06:04:00;;;;;;;0.00;0.00;;;11.20;99.90;;;;;;5031930;28;20060;-82
2022/11/04 06:06:29;;;;;;;0.00;0.00;;;11.20;99.90;;;;;;5034069;28;20080;-83
2022/11/04 06:08:56;;;;;;;0.00;0.00;;;11.60;99.90;;;;;;5046529;28;20068;-80
2022/11/04 06:11:24;;;;;;;0.03;0.03;;;11.10;99.90;;;;;;5043871;28;20061;-83
2022/11/04 06:13:53;;;;;;;0.00;0.00;;;11.10;99.90;;;;;;5051294;28;20087;-82
2022/11/04 06:16:20;;;;;;;0.00;0.00;;;12.50;99.90;;;;;;5036120;28;20056;-82
2022/11/04 06:18:47;;;;;;;0.00;0.00;;;;;;;;;;5046828;28;20025;-83
2022/11/04 06:21:24;;;;;;;0.00;0.00;;;11.20;99.90;;;;;;5044971;28;20056;-81
2022/11/04 06:23:52;;;;;;;0.00;0.00;;;11.20;99.90;;;;;;5054975;28;20053;-82
2022/11/04 06:26:19;;;;;;;0.10;0.10;;;;;;;;;;5036477;28;20041;-83
2022/11/04 06:28:54;;;;;;;0.10;0.10;;;11.90;99.90;;;;;;5050811;28;20046;-84
2022/11/04 06:31:21;;;;;;;0.05;0.05;;;;;;;;;;5034303;28;20186;-83
2022/11/04 06:33:48;;;;;;;0.00;0.00;;;;;;;;;;5031049;28;20203;-81
2022/11/04 06:36:16;;;;;;;0.00;0.00;;;11.10;99.90;;;;;;5040595;28;20040;-83
2022/11/04 06:38:42;;;;;;;0.10;0.10;;;11.80;99.90;;;;;;5039578;28;20030;-83
2022/11/04 06:41:12;;;;;;;0.00;0.00;;;11.20;99.90;;;;;;5041064;28;20072;-82
2022/11/04 06:43:39;;;;;;;0.00;0.00;;;11.10;99.90;;;;;;5041707;28;20041;-83
2022/11/04 06:46:24;;;;;;;0.00;0.00;;;11.10;99.90;;;;;;5036802;28;20056;-84
2022/11/04 06:48:51;;;;;;;0.00;0.00;;;11.20;99.90;;;;;;5039765;28;20077;-83
2022/11/04 06:51:19;;;;;;;0.00;0.00;;;;;;;;;;5036116;28;20026;-83
2022/11/04 06:53:45;;;;;;;0.00;0.00;;;11.10;99.90;;;;;;5055697;28;20045;-82
2022/11/04 06:56:12;;;;;;;0.10;0.10;;;11.00;99.90;;;;;;5041018;28;20047;-82
2022/11/04 06:58:40;;;;;;;0.03;0.03;;;;;;;;;;5051786;28;20037;-82
2022/11/04 07:01:08;;;;;;;0.00;0.00;;;10.90;99.90;;;;;;5035274;28;20061;-82
2022/11/04 07:03:48;;;;;;;0.10;0.10;;;10.80;99.90;;;;;;5053424;28;20051;-79
2022/11/04 07:06:15;;;;;;;0.10;0.10;;;;;;;;;;5049645;28;20073;-84
2022/11/04 07:08:42;;;;;;;0.05;0.05;;;;;;;;;;5035467;28;20064;-80
2022/11/04 07:11:09;;;;;;;0.00;0.00;;;10.80;99.90;;;;;;5039176;28;20029;-83
2022/11/04 07:13:36;;;;;;;0.00;0.00;;;;;;;;;;5041344;28;20022;-80
2022/11/04 07:16:04;;;;;;;0.10;0.10;;;10.80;99.90;;;;;;5039178;28;20060;-79
2022/11/04 07:18:32;;;;;;;0.00;0.00;;;10.80;99.90;;;;;;5036584;28;20061;-84
2022/11/04 07:21:00;;;;;;;0.10;0.10;;;10.80;99.90;;;;;;5040884;28;20141;-82
2022/11/04 07:23:34;;;;;;;0.10;0.10;;;10.80;99.90;;;;;;5044701;28;20030;-83
2022/11/04 07:26:02;;;;;;;0.00;0.00;;;10.80;99.90;;;;;;5053925;28;20069;-83
2022/11/04 07:28:30;;;;;;;0.10;0.10;;;10.90;99.90;;;;;;5047398;28;20049;-82
2022/11/04 07:30:58;;;;;;;0.00;0.00;;;10.80;99.90;;;;;;5034923;28;20065;-82
2022/11/04 07:33:26;;;;;;;0.10;0.10;;;10.90;99.90;;;;;;5039066;28;20041;-84
2022/11/04 07:35:54;;;;;;;0.10;0.10;;;10.90;99.90;;;;;;5039298;28;20037;-82
2022/11/04 07:38:24;;;;;;;0.08;0.08;;;;;;;;;;5047283;28;20033;-81
2022/11/04 07:40:52;;;;;;;0.10;0.10;;;;;;;;;;5050916;28;20067;-82
2022/11/04 07:43:19;;;;;;;0.10;0.10;;;10.90;99.90;;;;;;5032670;28;20056;-82
2022/11/04 07:45:58;;;;;;;0.10;0.10;;;11.00;99.90;;;;;;5035044;28;20048;-83
2022/11/04 07:48:25;;;;;;;0.00;0.00;;;11.20;99.90;;;;;;5033654;28;20049;-81
2022/11/04 07:50:55;;;;;;;0.10;0.10;;;11.00;99.90;;;;;;5034945;28;20033;-81
2022/11/04 07:53:22;;;;;;;0.10;0.10;;;12.50;99.90;;;;;;5038418;28;20022;-82
2022/11/04 07:55:50;;;;;;;0.10;0.10;;;;;;;;;;5035386;28;20080;-84
2022/11/04 07:58:17;;;;;;;0.00;0.00;;;11.00;99.90;;;;;;5043510;28;20052;-82
2022/11/04 08:00:44;;;;;;;0.10;0.10;;;12.10;99.90;;;;;;5036305;28;20033;-82
2022/11/04 08:03:11;;;;;;;0.03;0.03;;;;;;;;;;5052212;28;20041;-82
2022/11/04 08:05:39;;;;;;;0.00;0.00;;;;;;;;;;5040508;28;20048;-80
2022/11/04 08:08:07;;;;;;;0.08;0.08;;;10.90;99.90;;;;;;5037563;28;20102;-81
2022/11/04 08:10:35;;;;;;;0.00;0.00;;;;;;;;;;5030657;28;20048;-81
2022/11/04 08:13:02;;;;;;;0.00;0.00;;;11.00;99.90;;;;;;5031723;28;20065;-82
2022/11/04 08:15:30;;;;;;;0.10;0.10;;;;;;;;;;5055516;28;20057;-81
2022/11/04 08:17:57;;;;;;;0.10;0.10;;;;;;;;;;5055565;28;20467;-80
2022/11/04 08:20:24;;;;;;;0.10;0.10;;;;;;;;;;5050724;28;20064;-83
2022/11/04 08:22:51;;;;;;;0.00;0.00;;;;;;;;;;5043565;28;20049;-82
2022/11/04 08:25:19;;;;;;;0.10;0.10;;;10.90;99.90;;;;;;5030959;28;20084;-82
2022/11/04 08:27:47;;;;;;;0.10;0.10;;;;;;;;;;5035746;28;20069;-82
2022/11/04 08:30:14;;;;;;;0.10;0.10;;;10.90;99.90;;;;;;5045967;28;20052;-82
2022/11/04 08:32:41;;;;;;;0.10;0.10;;;11.00;99.90;;;;;;5038682;28;20046;-83
2022/11/04 08:35:08;;;;;;;0.10;0.10;;;10.90;99.90;;;;;;5043592;28;20041;-81
2022/11/04 08:37:35;;;;;;;0.10;0.10;;;10.90;99.90;;;;;;5037192;28;20029;-83
2022/11/04 08:40:02;;;;;;;0.10;0.10;;;10.90;99.90;;;;;;5048188;28;20084;-81
2022/11/04 08:42:30;;;;;;;0.00;0.00;;;10.90;99.90;;;;;;5037805;28;20018;-83
2022/11/04 08:44:57;;;;;;;0.00;0.00;;;11.00;99.90;;;;;;5054096;28;20068;-81
2022/11/04 08:47:24;;;;;;;0.08;0.08;;;12.00;99.90;;;;;;5038088;28;20070;-81
2022/11/04 08:49:51;;;;;;;0.00;0.00;;;11.10;99.90;;;;;;5050028;28;20062;-83
2022/11/04 08:52:18;;;;;;;0.00;0.00;;;11.20;99.90;;;;;;5041842;28;20053;-84
2022/11/04 08:54:45;;;;;;;0.10;0.10;;;;;;;;;;5032365;28;20068;-82
2022/11/04 08:57:12;;;;;;;0.10;0.10;;;;;;;;;;5037347;28;20045;-81
2022/11/04 08:59:40;;;;;;;0.00;0.00;;;11.50;99.90;;;;;;5036209;28;20022;-83
2022/11/04 09:02:12;;;;;;;0.00;0.00;;;12.20;99.90;;;;;;5036229;28;20597;-82
2022/11/04 09:04:39;;;;;;;0.00;0.00;;;;;;;;;;5049794;28;20040;-83
2022/11/04 09:07:06;;;;;;;0.00;0.00;;;11.80;99.90;;;;;;5048668;28;20093;-82
2022/11/04 09:09:34;;;;;;;0.00;0.00;;;;;;;;;;5028437;28;20055;-81
2022/11/04 09:12:01;;;;;;;0.00;0.00;;;;;;;;;;5047956;28;20067;-83
2022/11/04 09:14:28;;;;;;;0.00;0.00;;;;;;;;;;5032419;28;20077;-82
2022/11/04 09:16:57;;;;;;;0.00;0.00;;;12.00;99.90;;;;;;5049434;28;20092;-80
2022/11/04 09:19:24;;;;;;;0.00;0.00;;;12.00;99.90;;;;;;5031603;28;20057;-85
2022/11/04 09:21:51;;;;;;;0.00;0.00;;;12.00;99.90;;;;;;5042623;28;20073;-81
2022/11/04 09:24:18;;;;;;;0.00;0.00;;;13.00;99.90;;;;;;5031426;28;20037;-84
2022/11/04 09:26:45;;;;;;;0.00;0.00;;;11.90;99.90;;;;;;5035265;28;20033;-82
2022/11/04 09:29:12;;;;;;;0.00;0.00;;;12.30;99.90;;;;;;5054734;28;20052;-81
2022/11/04 09:31:38;;;;;;;0.00;0.00;;;11.60;99.90;;;;;;5045428;28;20052;-81
2022/11/04 09:34:07;;;;;;;0.00;0.00;;;11.60;99.90;;;;;;5046939;28;20041;-82
2022/11/04 09:36:34;;;;;;;0.00;0.00;;;;;;;;;;5034875;28;20071;-82
2022/11/04 09:39:01;;;;;;;0.10;0.10;;;11.60;99.90;;;;;;5033825;28;20073;-83
2022/11/04 09:41:46;;;;;;;0.00;0.00;;;11.50;99.90;;;;;;5047954;28;20054;-81
2022/11/04 09:44:20;;;;;;;0.00;0.00;;;12.40;99.90;;;;;;5035110;28;20038;-81
2022/11/04 09:46:49;;;;;;;0.00;0.00;;;11.80;99.90;;;;;;5045413;28;20149;-83
2022/11/04 09:49:19;;;;;;;0.00;0.00;;;11.70;99.90;;;;;;5051836;28;20064;-83
2022/11/04 09:51:47;;;;;;;0.10;0.10;;;11.70;99.90;;;;;;5055814;28;20075;-83
2022/11/04 09:54:23;;;;;;;0.00;0.00;;;11.80;99.90;;;;;;5048110;28;20053;-80
2022/11/04 09:56:52;;;;;;;0.00;0.00;;;13.90;99.90;;;;;;5051000;28;20063;-84
2022/11/04 09:59:26;;;;;;;0.00;0.00;;;13.50;99.90;;;;;;5040158;28;20045;-83
2022/11/04 10:02:05;;;;;;;0.00;0.00;;;13.40;99.90;;;;;;5049112;28;20046;-82
2022/11/04 10:04:47;;;;;;;0.00;0.00;;;12.80;99.90;;;;;;5033809;28;20073;-81
2022/11/04 10:07:32;;;;;;;0.00;0.00;;;12.00;99.90;;;;;;5052281;28;20068;-83
2022/11/04 10:10:08;;;;;;;0.00;0.00;;;12.60;99.90;;;;;;5044146;28;20072;-83
2022/11/04 10:12:49;;;;;;;0.00;0.00;;;11.90;99.90;;;;;;5043903;28;20037;-83
2022/11/04 10:15:33;;;;;;;0.00;0.00;;;12.00;99.90;;;;;;5039669;28;20049;-81
2022/11/04 10:18:12;;;;;;;0.00;0.00;;;11.90;99.90;;;;;;5051576;28;20054;-83
2022/11/04 10:20:51;;;;;;;0.00;0.00;;;12.00;99.90;;;;;;5055497;28;20037;-85
2022/11/04 10:24:02;;;;;;;0.10;0.10;;;12.10;99.90;;;;;;5029410;28;20064;-82
2022/11/04 10:26:56;;;;;;;0.00;0.00;;;12.20;99.90;;;;;;5036829;28;20060;-81
2022/11/04 10:33:58;;;;;;;0.00;0.00;;;12.60;99.90;;;;;;5016934;28;20510;-82
2022/11/04 10:36:26;;;;;;;0.00;0.00;;;12.30;99.90;;;;;;5033375;28;20053;-82
2022/11/04 10:38:55;;;;;;;0.10;0.10;;;12.20;99.90;;;;;;5023706;28;20529;-79
2022/11/04 10:41:28;;;;;;;0.00;0.00;;;12.20;99.90;;;;;;5034341;28;20069;-81
2022/11/04 10:44:00;;;;;;;0.00;0.00;;;12.20;99.90;;;;;;5043541;28;20139;-82
2022/11/04 10:46:48;;;;;;;0.00;0.00;;;12.30;99.90;;;;;;5047307;28;20072;-83
2022/11/04 10:49:42;;;;;;;0.00;0.00;;;12.20;99.90;;;;;;5048688;28;20058;-82
2022/11/04 10:52:34;;;;;;;0.10;0.10;;;12.40;99.90;;;;;;5039279;28;20045;-81
2022/11/04 10:55:01;;;;;;;0.00;0.00;;;12.30;99.90;;;;;;5027745;28;20060;-82
2022/11/04 10:57:28;;;;;;;0.00;0.00;;;12.30;99.90;;;;;;5037204;28;20054;-82
2022/11/04 10:59:56;;;;;;;0.10;0.10;;;12.40;99.90;;;;;;5045975;28;20044;-83
2022/11/04 11:02:45;;;;;;;0.00;0.00;;;12.50;99.90;;;;;;5035498;28;20658;-81
2022/11/04 11:05:20;;;;;;;0.00;0.00;;;12.60;99.90;;;;;;5046097;28;20068;-82
2022/11/04 11:07:50;;;;;;;0.00;0.00;;;12.60;99.90;;;;;;5049423;28;20049;-84
2022/11/04 11:10:21;;;;;;;0.00;0.00;;;12.60;99.90;;;;;;5029448;28;20053;-81
2022/11/04 11:12:55;;;;;;;0.00;0.00;;;12.60;99.90;;;;;;5032161;28;20065;-83
2022/11/04 11:15:28;;;;;;;0.00;0.00;;;12.60;99.90;;;;;;5030769;28;20030;-81
2022/11/04 11:18:02;;;;;;;0.00;0.00;;;12.60;99.90;;;;;;5033731;28;20148;-82
2022/11/04 11:20:32;;;;;;;0.00;0.00;;;;;;;;;;5036348;28;20084;-83
2022/11/04 11:23:01;;;;;;;;;;;12.60;99.90;;;;;;5039062;28;20045;-82
2022/11/04 11:25:31;;;;;;;0.00;0.00;;;;;;;;;;5046220;28;19948;-82
2022/11/04 11:28:00;;;;;;;0.00;0.00;;;12.60;99.90;;;;;;5037088;28;20041;-83
2022/11/04 11:30:30;;;;;;;0.00;0.00;;;13.20;99.90;;;;;;5033463;28;20080;-81
2022/11/04 11:33:00;;;;;;;0.00;0.00;;;12.70;99.90;;;;;;5015079;28;20037;-81
2022/11/04 11:35:32;;;;;;;0.00;0.00;;;12.70;99.90;;;;;;5027699;28;20056;-82
2022/11/04 11:38:03;;;;;;;0.00;0.00;;;12.60;99.90;;;;;;5043053;28;20061;-77
2022/11/04 11:40:39;;;;;;;0.00;0.00;;;12.60;99.90;;;;;;5047778;28;20041;-79
2022/11/04 11:43:30;;;;;;;0.00;0.00;;;12.90;99.90;;;;;;5032996;28;20134;-78
2022/11/04 11:45:58;;;;;;;0.00;0.00;;;12.60;99.90;;;;;;5029714;28;20041;-80
2022/11/04 11:48:30;;;;;;;0.00;0.00;;;12.60;99.90;;;;;;5048607;28;20060;-79
2022/11/04 11:50:58;;;;;;;0.00;0.00;;;12.60;99.90;;;;;;5036568;28;20045;-78
2022/11/04 11:53:34;;;;;;;0.00;0.00;;;12.60;99.90;;;;;;5032915;28;20052;-79
2022/11/04 11:56:12;;;;;;;0.00;0.00;;;13.20;99.90;;;;;;5028996;28;20068;-79
2022/11/04 11:58:44;;;;;;;0.00;0.00;;;12.50;99.90;;;;;;5026571;28;20056;-81
2022/11/04 12:01:37;;;;;;;0.00;0.00;;;12.60;99.90;;;;;;5033733;28;20137;-80
2022/11/04 12:04:06;;;;;;;0.00;0.00;;;;;;;;;;5025022;28;20108;-81
2022/11/04 12:07:02;;;;;;;0.00;0.00;;;12.70;99.90;;;;;;5031238;28;20534;-80
2022/11/04 12:09:57;;;;;;;0.00;0.00;;;12.60;99.90;;;;;;5032091;28;20049;-84
2022/11/04 12:12:35;;;;;;;0.00;0.00;;;13.90;99.90;;;;;;5034025;28;20042;-82
2022/11/04 12:15:19;;;;;;;0.00;0.00;;;14.40;99.90;;;;;;5034265;28;20053;-84
2022/11/04 12:17:58;;;;;;;0.00;0.00;;;12.90;99.90;;;;;;5039414;28;20038;-81
2022/11/04 12:20:38;;;;;;;0.00;0.00;;;12.70;99.90;;;;;;5035467;28;20049;-83
2022/11/04 12:23:13;;;;;;;0.00;0.00;;;12.10;99.90;;;;;;5049250;28;20030;-82
2022/11/04 12:25:48;;;;;;;0.00;0.00;;;12.10;99.90;;;;;;5033716;28;20029;-82
2022/11/04 12:28:26;;;;;;;0.00;0.00;;;12.20;99.90;;;;;;5047371;28;20049;-81
2022/11/04 12:31:05;;;;;;;0.00;0.00;;;13.00;99.90;;;;;;5048112;28;20071;-83
2022/11/04 12:33:38;;;;;;;0.03;0.03;;;12.60;99.90;;;;;;5029631;28;20087;-80
2022/11/04 12:36:21;;;;;;;0.00;0.00;;;13.10;99.90;;;;;;5041109;28;20273;-81
2022/11/04 12:39:01;;;;;;;0.03;0.03;;;12.30;99.90;;;;;;5034919;28;20076;-81
2022/11/04 12:41:39;;;;;;;0.00;0.00;;;12.30;99.90;;;;;;5043725;28;20072;-84
2022/11/04 12:44:33;;;;;;;0.10;0.10;;;12.30;99.90;;;;;;5047937;28;20045;-83
2022/11/04 12:47:13;;;;;;;0.00;0.00;;;12.30;99.90;;;;;;5032194;28;20060;-80
2022/11/04 12:49:58;;;;;;;0.00;0.00;;;12.40;99.90;;;;;;5054492;28;20080;-82
2022/11/04 12:52:44;;;;;;;0.00;0.00;;;12.40;99.90;;;;;;5026092;28;20053;-80
2022/11/04 12:55:30;;;;;;;0.00;0.00;;;12.40;99.90;;;;;;5015609;28;20046;-81
2022/11/04 12:58:11;;;;;;;0.00;0.00;;;12.50;99.90;;;;;;5025013;28;20045;-79
2022/11/04 13:00:40;;;;;;;0.00;0.00;;;14.80;99.90;;;;;;5028952;28;20066;-80
2022/11/04 13:03:13;;;;;;;0.00;0.00;;;12.60;99.90;;;;;;5044165;28;20417;-83
2022/11/04 13:05:46;;;;;;;0.08;0.08;;;13.20;99.90;;;;;;5031576;28;20049;-77
2022/11/04 13:08:21;;;;;;;0.00;0.00;;;14.70;99.90;;;;;;5069756;23;20049;-87
2022/11/04 13:10:52;;;;;;;0.00;0.00;;;12.80;99.90;;;;;;5014319;28;20048;-85
2022/11/04 13:13:26;;;;;;;0.00;0.00;;;12.90;99.90;;;;;;5024622;28;20051;-85
2022/11/04 13:15:57;;;;;;;0.00;0.00;;;13.30;99.90;;;;;;5011832;28;20056;-85
2022/11/04 13:18:27;;;;;;;0.00;0.00;;;13.20;99.90;;;;;;5029676;28;20069;-85
2022/11/04 13:20:59;;;;;;;0.00;0.00;;;14.40;99.90;;;;;;5024986;28;20306;-87
2022/11/04 13:23:35;;;;;;;0.00;0.00;;;13.30;99.90;;;;;;5024282;28;20104;-87
2022/11/04 13:26:05;;;;;;;0.00;0.00;;;13.10;99.90;;;;;;5023540;28;20069;-87
2022/11/04 13:28:36;;;;;;;0.00;0.00;;;13.30;99.90;;;;;;5025686;28;20065;-85
2022/11/04 13:31:11;;;;;;;0.00;0.00;;;14.10;99.90;;;;;;5019939;28;20052;-87
2022/11/04 13:33:46;;;;;;;0.00;0.00;;;13.30;99.90;;;;;;5022399;28;20057;-84
2022/11/04 13:36:27;;;;;;;0.00;0.00;;;13.90;99.90;;;;;;5011873;28;20691;-86
2022/11/04 13:38:57;;;;;;;0.00;0.00;;;13.20;99.90;;;;;;5012213;28;20506;-85
2022/11/04 13:41:38;;;;;;;0.00;0.00;;;13.20;99.90;;;;;;5008503;28;20128;-85
2022/11/04 13:44:13;;;;;;;0.00;0.00;;;13.10;99.90;;;;;;5026733;28;20060;-86
2022/11/04 13:46:47;;;;;;;0.00;0.00;;;13.10;99.90;;;;;;5010478;28;20117;-86
2022/11/04 13:49:22;;;;;;;0.00;0.00;;;13.20;99.90;;;;;;5015029;28;20046;-87
2022/11/04 13:52:02;;;;;;;0.00;0.00;;;13.00;99.90;;;;;;5011832;28;20041;-89
2022/11/04 13:54:32;;;;;;;0.00;0.00;;;13.20;99.90;;;;;;5026923;28;20084;-87
2022/11/04 13:57:02;;;;;;;;;;;13.50;99.90;;;;;;5025445;28;20080;-84
2022/11/04 13:59:31;;;;;;;0.00;0.00;;;13.50;99.90;;;;;;5026979;28;19921;-86
2022/11/04 14:02:24;;;;;;;0.00;0.00;;;13.70;99.90;;;;;;5009096;28;20061;-86
2022/11/04 14:04:51;;;;;;;0.00;0.00;;;13.20;99.90;;;;;;5022926;28;20111;-86